createdAt,value
2018-06-14T00:00:48.244Z,97.10
2018-06-14T00:03:16.652Z,96.80
2018-06-14T00:05:45.253Z,96.90
2018-06-14T00:08:13.714Z,97.20
2018-06-14T00:13:10.228Z,97.50
2018-06-14T00:15:38.649Z,97.50
2018-06-14T00:18:07.081Z,97.50
2018-06-14T00:20:35.493Z,97.50
2018-06-14T00:23:03.920Z,97.40
2018-06-14T00:25:32.351Z,97.30
2018-06-14T00:28:00.818Z,97.40
2018-06-14T00:30:29.209Z,97.40
2018-06-14T00:35:25.983Z,98.00
2018-06-14T00:37:54.418Z,97.80
2018-06-14T00:40:22.881Z,97.60
2018-06-14T00:42:51.312Z,97.70
2018-06-14T00:45:19.768Z,97.50
2018-06-14T00:47:48.213Z,97.80
2018-06-14T00:50:16.710Z,97.80
2018-06-14T00:52:45.113Z,98.00
2018-06-14T00:55:13.552Z,98.20
2018-06-14T00:57:42.036Z,98.20
2018-06-14T01:00:10.120Z,98.10
2018-06-14T01:02:38.537Z,98.20
2018-06-14T01:05:07.118Z,98.20
2018-06-14T01:07:35.572Z,98.30
2018-06-14T01:10:04.073Z,98.40
2018-06-14T01:15:00.607Z,98.60
2018-06-14T01:17:29.011Z,98.60
2018-06-14T01:19:57.504Z,98.30
2018-06-14T01:22:25.930Z,98.50
2018-06-14T01:24:54.464Z,98.40
2018-06-14T01:27:22.880Z,98.60
2018-06-14T01:29:51.333Z,98.70
2018-06-14T01:32:19.739Z,98.90
2018-06-14T01:34:48.132Z,98.90
2018-06-14T01:37:22.368Z,98.80
2018-06-14T01:39:50.801Z,98.70
2018-06-14T01:42:19.208Z,98.90
2018-06-14T01:44:47.636Z,99.00
2018-06-14T01:47:16.680Z,98.90
2018-06-14T01:49:45.118Z,99.20
2018-06-14T01:52:13.605Z,99.30
2018-06-14T01:54:42.009Z,99.80
2018-06-14T01:57:10.472Z,99.50
2018-06-14T01:59:38.876Z,99.20
2018-06-14T02:02:07.326Z,99.00
2018-06-14T02:04:35.797Z,99.00
2018-06-14T02:07:04.318Z,98.90
2018-06-14T02:09:32.739Z,99.00
2018-06-14T02:12:01.154Z,99.00
2018-06-14T02:16:57.921Z,99.20
2018-06-14T02:19:26.436Z,99.20
2018-06-14T02:21:54.885Z,99.40
2018-06-14T02:24:23.306Z,99.50
2018-06-14T02:26:51.709Z,99.40
2018-06-14T02:29:20.106Z,99.50
2018-06-14T02:31:48.490Z,99.40
2018-06-14T02:34:16.929Z,99.50
2018-06-14T02:36:45.420Z,99.60
2018-06-14T02:39:13.865Z,99.70
2018-06-14T02:41:42.294Z,99.80
2018-06-14T02:44:10.752Z,99.90
2018-06-14T02:46:39.181Z,99.90
2018-06-14T02:49:07.609Z,99.90
2018-06-14T02:51:36.069Z,99.90
2018-06-14T02:54:04.549Z,99.90
2018-06-14T02:56:32.977Z,99.90
2018-06-14T02:59:01.391Z,99.90
2018-06-14T03:01:30.054Z,99.90
2018-06-14T03:03:58.518Z,99.90
2018-06-14T03:06:26.969Z,99.90
2018-06-14T03:08:56.333Z,99.90
2018-06-14T03:11:24.760Z,99.90
2018-06-14T03:13:53.158Z,99.90
2018-06-14T03:16:21.604Z,99.90
2018-06-14T03:18:49.994Z,99.90
2018-06-14T03:21:18.436Z,99.90
2018-06-14T03:23:46.936Z,99.90
2018-06-14T03:26:15.721Z,99.90
2018-06-14T03:28:44.175Z,99.90
2018-06-14T03:31:12.584Z,99.90
2018-06-14T03:33:41.056Z,99.80
2018-06-14T03:36:09.490Z,99.80
2018-06-14T03:38:38.780Z,99.60
2018-06-14T03:41:07.262Z,99.60
2018-06-14T03:43:35.934Z,99.50
2018-06-14T03:48:33.606Z,99.50
2018-06-14T03:51:02.068Z,99.00
2018-06-14T03:53:30.561Z,98.90
2018-06-14T03:55:58.978Z,98.70
2018-06-14T03:58:27.428Z,98.50
2018-06-14T04:00:55.812Z,98.70
2018-06-14T04:03:24.245Z,99.10
2018-06-14T04:05:52.720Z,98.30
2018-06-14T04:08:21.135Z,97.60
2018-06-14T04:10:49.595Z,95.70
2018-06-14T04:13:18.020Z,93.30
2018-06-14T04:15:46.443Z,90.40
2018-06-14T04:18:14.830Z,88.30
2018-06-14T04:20:43.259Z,85.10
2018-06-14T04:23:11.708Z,81.50
2018-06-14T04:25:40.128Z,80.00
2018-06-14T04:28:08.605Z,78.30
2018-06-14T04:30:37.052Z,77.40
2018-06-14T04:33:05.525Z,76.20
2018-06-14T04:35:33.950Z,75.00
2018-06-14T04:38:02.531Z,74.10
2018-06-14T04:40:30.913Z,72.00
2018-06-14T04:42:59.884Z,69.20
2018-06-14T04:45:28.309Z,67.50
2018-06-14T04:47:56.887Z,65.50
2018-06-14T04:50:25.313Z,63.10
2018-06-14T04:52:53.764Z,61.80
2018-06-14T04:55:22.179Z,62.20
2018-06-14T04:57:50.585Z,61.70
2018-06-14T05:00:19.019Z,61.00
2018-06-14T05:02:47.416Z,60.90
2018-06-14T05:05:15.909Z,60.10
2018-06-14T05:07:44.365Z,60.00
2018-06-14T05:10:13.204Z,60.10
2018-06-14T05:12:42.343Z,58.20
2018-06-14T05:15:10.757Z,57.90
2018-06-14T05:17:39.230Z,57.00
2018-06-14T05:20:07.663Z,55.70
2018-06-14T05:22:36.111Z,53.80
2018-06-14T05:25:04.784Z,53.00
2018-06-14T05:27:33.174Z,52.30
2018-06-14T05:30:01.622Z,52.30
2018-06-14T05:32:30.924Z,52.90
2018-06-14T05:34:59.373Z,52.60
2018-06-14T05:39:56.056Z,50.70
2018-06-14T05:42:24.581Z,49.90
2018-06-14T05:44:52.975Z,48.60
2018-06-14T05:47:21.542Z,48.00
2018-06-14T05:49:49.914Z,47.20
2018-06-14T05:52:18.336Z,47.60
2018-06-14T05:54:46.869Z,46.10
2018-06-14T05:57:15.297Z,45.50
2018-06-14T05:59:43.710Z,43.40
2018-06-14T06:02:12.183Z,44.40
2018-06-14T06:04:40.666Z,43.30
2018-06-14T06:07:09.082Z,43.30
2018-06-14T06:09:37.501Z,42.30
2018-06-14T06:12:05.945Z,40.90
2018-06-14T06:14:34.376Z,41.20
2018-06-14T06:17:03.103Z,41.50
2018-06-14T06:19:31.549Z,41.50
2018-06-14T06:22:00.619Z,41.00
2018-06-14T06:24:29.213Z,40.30
2018-06-14T06:26:57.620Z,39.50
2018-06-14T06:29:26.315Z,40.10
2018-06-14T06:31:54.745Z,39.40
2018-06-14T06:34:23.137Z,39.90
2018-06-14T06:36:51.629Z,40.50
2018-06-14T06:39:19.993Z,39.20
2018-06-14T06:41:48.577Z,38.70
2018-06-14T06:44:17.721Z,38.10
2018-06-14T06:46:46.396Z,37.10
2018-06-14T06:49:14.949Z,37.60
2018-06-14T06:51:44.312Z,37.50
2018-06-14T06:54:12.741Z,37.30
2018-06-14T06:56:41.290Z,37.50
2018-06-14T06:59:09.770Z,37.40
2018-06-14T07:01:38.173Z,36.50
2018-06-14T07:04:06.591Z,36.30
2018-06-14T07:06:35.039Z,35.90
2018-06-14T07:09:03.735Z,34.80
2018-06-14T07:11:32.361Z,34.70
2018-06-14T07:14:00.725Z,34.40
2018-06-14T07:16:29.125Z,34.90
2018-06-14T07:18:57.864Z,34.50
2018-06-14T07:21:26.292Z,33.90
2018-06-14T07:23:54.779Z,34.00
2018-06-14T07:26:23.444Z,34.00
2018-06-14T07:28:51.984Z,33.20
2018-06-14T07:31:20.393Z,33.00
2018-06-14T07:33:48.869Z,32.70
2018-06-14T07:36:17.319Z,33.00
2018-06-14T07:38:45.737Z,33.40
2018-06-14T07:41:14.138Z,33.70
2018-06-14T07:43:42.560Z,33.20
2018-06-14T07:46:11.029Z,32.70
2018-06-14T07:48:39.581Z,32.60
2018-06-14T07:51:08.490Z,33.40
2018-06-14T07:53:37.128Z,34.10
2018-06-14T07:56:05.917Z,34.40
2018-06-14T07:58:34.366Z,34.80
2018-06-14T08:01:02.781Z,34.50
2018-06-14T08:03:31.225Z,34.70
2018-06-14T08:05:59.638Z,34.60
2018-06-14T08:08:28.029Z,33.50
2018-06-14T08:10:56.502Z,32.40
2018-06-14T08:13:24.956Z,31.80
2018-06-14T08:15:53.690Z,31.80
2018-06-14T08:18:22.149Z,32.60
2018-06-14T08:20:50.550Z,32.90
2018-06-14T08:23:18.983Z,31.50
2018-06-14T08:25:47.414Z,30.80
2018-06-14T08:28:15.873Z,31.20
2018-06-14T08:30:44.278Z,30.10
2018-06-14T08:35:41.133Z,29.70
2018-06-14T08:38:09.566Z,29.40
2018-06-14T08:40:38.012Z,29.20
2018-06-14T08:43:06.439Z,29.30
2018-06-14T08:45:34.859Z,29.00
2018-06-14T08:48:03.315Z,29.20
2018-06-14T08:50:31.746Z,29.10
2018-06-14T08:53:00.202Z,29.40
2018-06-14T08:55:28.677Z,29.60
2018-06-14T08:57:57.102Z,29.70
2018-06-14T09:00:25.565Z,31.10
2018-06-14T09:02:53.968Z,32.70
2018-06-14T09:05:22.682Z,32.80
2018-06-14T09:07:51.161Z,33.10
2018-06-14T09:10:19.653Z,34.30
2018-06-14T09:12:48.305Z,34.40
2018-06-14T09:15:16.752Z,34.50
2018-06-14T09:17:45.393Z,35.10
2018-06-14T09:20:13.841Z,35.20
2018-06-14T09:22:42.302Z,34.80
2018-06-14T09:25:10.756Z,34.90
2018-06-14T09:27:39.137Z,33.40
2018-06-14T09:30:07.558Z,32.20
2018-06-14T09:32:35.969Z,29.80
2018-06-14T09:37:32.779Z,27.60
2018-06-14T09:40:01.184Z,26.50
2018-06-14T09:42:29.637Z,26.50
2018-06-14T09:44:58.124Z,26.40
2018-06-14T09:47:26.537Z,26.40
2018-06-14T09:49:55.474Z,26.20
2018-06-14T09:52:23.875Z,26.70
2018-06-14T09:54:52.309Z,27.10
2018-06-14T09:57:20.732Z,27.80
2018-06-14T09:59:49.202Z,27.50
2018-06-14T10:02:17.584Z,28.80
2018-06-14T10:04:46.045Z,29.30
2018-06-14T10:07:14.474Z,28.90
2018-06-14T10:09:42.897Z,29.20
2018-06-14T10:12:11.373Z,29.70
2018-06-14T10:14:39.801Z,30.50
2018-06-14T10:17:08.342Z,31.00
2018-06-14T10:19:36.760Z,30.50
2018-06-14T10:24:33.486Z,31.30
2018-06-14T10:27:01.909Z,31.50
2018-06-14T10:29:30.321Z,32.20
2018-06-14T10:31:58.736Z,32.20
2018-06-14T10:34:27.138Z,32.30
2018-06-14T10:39:23.760Z,32.30
2018-06-14T10:41:52.207Z,32.70
2018-06-14T10:44:20.613Z,31.80
2018-06-14T10:46:49.079Z,31.10
2018-06-14T10:49:24.233Z,30.90
2018-06-14T10:51:52.661Z,31.50
2018-06-14T10:54:21.189Z,32.10
2018-06-14T10:56:50.156Z,30.80
2018-06-14T10:59:18.604Z,29.70
2018-06-14T11:01:47.048Z,29.30
2018-06-14T11:04:15.513Z,29.20
2018-06-14T11:06:43.969Z,28.90
2018-06-14T11:09:12.693Z,29.70
2018-06-14T11:11:41.560Z,29.60
2018-06-14T11:14:10.174Z,29.40
2018-06-14T11:16:38.624Z,29.50
2018-06-14T11:19:07.016Z,29.50
2018-06-14T11:21:35.784Z,29.80
2018-06-14T11:24:04.278Z,29.60
2018-06-14T11:26:32.737Z,30.00
2018-06-14T11:29:01.224Z,30.40
2018-06-14T11:31:29.612Z,30.40
2018-06-14T11:33:58.141Z,30.40
2018-06-14T11:36:26.567Z,30.50
2018-06-14T11:38:55.030Z,31.40
2018-06-14T11:41:23.752Z,30.70
2018-06-14T11:43:52.292Z,30.40
2018-06-14T11:46:20.707Z,30.50
2018-06-14T11:48:49.386Z,30.80
2018-06-14T11:51:17.840Z,31.10
2018-06-14T11:53:46.245Z,31.40
2018-06-14T11:56:14.688Z,31.50
2018-06-14T11:58:43.093Z,30.90
2018-06-14T12:01:11.685Z,30.90
2018-06-14T12:03:40.056Z,30.50
2018-06-14T12:06:08.482Z,30.40
2018-06-14T12:08:36.921Z,30.70
2018-06-14T12:11:05.351Z,30.40
2018-06-14T12:13:33.864Z,30.10
2018-06-14T12:16:02.281Z,30.20
2018-06-14T12:18:30.730Z,31.30
2018-06-14T12:20:59.142Z,31.00
2018-06-14T12:23:27.928Z,30.60
2018-06-14T12:25:56.338Z,30.60
2018-06-14T12:28:24.740Z,30.50
2018-06-14T12:30:53.200Z,30.40
2018-06-14T12:33:21.646Z,30.20
2018-06-14T12:35:50.084Z,30.00
2018-06-14T12:38:18.498Z,30.40
2018-06-14T12:40:46.977Z,30.50
2018-06-14T12:43:15.390Z,31.10
2018-06-14T12:45:43.842Z,31.90
2018-06-14T12:48:12.326Z,32.10
2018-06-14T12:50:40.825Z,31.30
2018-06-14T12:53:09.297Z,31.40
2018-06-14T12:55:37.736Z,31.20
2018-06-14T12:58:06.222Z,31.50
2018-06-14T13:00:34.700Z,31.60
2018-06-14T13:03:03.239Z,31.60
2018-06-14T13:05:31.965Z,31.50
2018-06-14T13:08:00.362Z,31.40
2018-06-14T13:10:29.214Z,31.30
2018-06-14T13:12:57.904Z,30.90
2018-06-14T13:15:26.311Z,31.00
2018-06-14T13:17:54.741Z,31.40
2018-06-14T13:20:23.195Z,31.50
2018-06-14T13:22:51.610Z,32.50
2018-06-14T13:25:20.075Z,31.90
2018-06-14T13:27:48.484Z,31.10
2018-06-14T13:30:16.995Z,31.10
2018-06-14T13:32:45.418Z,31.50
2018-06-14T13:35:13.898Z,32.00
2018-06-14T13:37:42.334Z,32.70
2018-06-14T13:40:10.756Z,32.30
2018-06-14T13:42:39.205Z,32.40
2018-06-14T13:45:07.694Z,32.20
2018-06-14T13:47:36.219Z,31.80
2018-06-14T13:50:04.707Z,31.80
2018-06-14T13:52:33.376Z,31.50
2018-06-14T13:55:01.923Z,31.20
2018-06-14T13:57:30.343Z,32.10
2018-06-14T13:59:58.766Z,31.60
2018-06-14T14:02:27.229Z,31.30
2018-06-14T14:04:56.053Z,31.10
2018-06-14T14:07:26.609Z,31.20
2018-06-14T14:09:56.017Z,31.70
2018-06-14T14:14:53.824Z,31.80
2018-06-14T14:17:22.356Z,31.90
2018-06-14T14:19:51.197Z,32.20
2018-06-14T14:22:19.629Z,32.50
2018-06-14T14:24:48.209Z,33.10
2018-06-14T14:27:16.973Z,34.00
2018-06-14T14:29:45.389Z,34.50
2018-06-14T14:32:13.852Z,36.00
2018-06-14T14:34:42.447Z,37.10
2018-06-14T14:37:10.949Z,37.50
2018-06-14T14:39:39.332Z,38.10
2018-06-14T14:42:07.844Z,40.00
2018-06-14T14:44:36.373Z,39.60
2018-06-14T14:47:04.802Z,40.60
2018-06-14T14:49:33.216Z,41.30
2018-06-14T14:52:01.651Z,42.10
2018-06-14T14:54:30.429Z,44.20
2018-06-14T14:56:58.888Z,44.30
2018-06-14T14:59:27.306Z,44.90
2018-06-14T15:01:55.749Z,46.30
2018-06-14T15:04:24.176Z,46.50
2018-06-14T15:06:52.766Z,48.30
2018-06-14T15:09:21.183Z,49.20
2018-06-14T15:14:17.813Z,51.70
2018-06-14T15:16:46.201Z,51.60
2018-06-14T15:19:14.624Z,52.30
2018-06-14T15:21:43.032Z,52.90
2018-06-14T15:24:11.424Z,54.10
2018-06-14T15:29:08.092Z,55.70
2018-06-14T15:31:36.492Z,55.60
2018-06-14T15:34:05.076Z,57.20
2018-06-14T15:36:33.500Z,58.60
2018-06-14T15:39:01.913Z,60.00
2018-06-14T15:41:30.368Z,62.30
2018-06-14T15:43:58.818Z,64.60
2018-06-14T15:46:27.328Z,66.80
2018-06-14T15:48:55.804Z,68.20
2018-06-14T15:51:24.231Z,69.80
2018-06-14T15:53:52.630Z,70.30
2018-06-14T15:56:33.732Z,71.50
2018-06-14T15:59:03.925Z,71.80
2018-06-14T16:01:32.356Z,73.90
2018-06-14T16:04:01.025Z,75.30
2018-06-14T16:06:29.425Z,76.60
2018-06-14T16:08:58.047Z,77.80
2018-06-14T16:11:26.736Z,78.60
2018-06-14T16:13:55.193Z,78.50
2018-06-14T16:16:24.306Z,79.00
2018-06-14T16:18:52.869Z,79.80
2018-06-14T16:21:21.360Z,80.90
2018-06-14T16:23:49.835Z,80.80
2018-06-14T16:26:18.454Z,81.60
2018-06-14T16:28:47.102Z,82.60
2018-06-14T16:31:15.712Z,83.00
2018-06-14T16:33:44.168Z,82.60
2018-06-14T16:36:12.572Z,84.00
2018-06-14T16:38:41.003Z,83.70
2018-06-14T16:41:09.509Z,84.20
2018-06-14T16:43:38.355Z,84.50
2018-06-14T16:46:07.726Z,84.60
2018-06-14T16:48:36.121Z,85.40
2018-06-14T16:51:04.554Z,86.10
2018-06-14T16:53:33.864Z,86.60
2018-06-14T16:56:02.387Z,86.70
2018-06-14T16:58:30.828Z,86.10
2018-06-14T17:00:59.280Z,86.20
2018-06-14T17:03:27.689Z,87.70
2018-06-14T17:05:56.156Z,88.30
2018-06-14T17:08:24.572Z,88.90
2018-06-14T17:10:53.042Z,88.20
2018-06-14T17:18:18.053Z,88.20
2018-06-14T17:20:46.641Z,88.50
2018-06-14T17:23:15.033Z,89.40
2018-06-14T17:25:43.454Z,89.70
2018-06-14T17:28:11.921Z,90.80
2018-06-14T17:30:40.326Z,90.70
2018-06-14T17:33:08.883Z,91.10
2018-06-14T17:35:37.309Z,89.90
2018-06-14T17:38:05.764Z,91.00
2018-06-14T17:40:34.236Z,90.70
2018-06-14T17:43:02.741Z,90.60
2018-06-14T17:45:31.981Z,91.60
2018-06-14T17:48:00.416Z,92.30
2018-06-14T17:50:28.821Z,91.80
2018-06-14T17:52:57.479Z,91.50
2018-06-14T17:55:25.957Z,91.50
2018-06-14T17:57:54.431Z,91.50
2018-06-14T18:00:22.968Z,91.10
2018-06-14T18:02:52.402Z,92.00
2018-06-14T18:05:22.148Z,91.20
2018-06-14T18:07:51.759Z,90.80
2018-06-14T18:10:21.264Z,91.00
2018-06-14T18:12:50.092Z,92.10
2018-06-14T18:15:19.701Z,92.10
2018-06-14T18:17:49.371Z,92.40
2018-06-14T18:20:17.902Z,92.40
2018-06-14T18:22:47.268Z,92.50
2018-06-14T18:25:15.815Z,92.20
2018-06-14T18:27:44.329Z,92.10
2018-06-14T18:30:12.870Z,93.00
2018-06-14T18:32:41.588Z,93.10
2018-06-14T18:35:10.006Z,93.30
2018-06-14T18:37:38.472Z,93.20
2018-06-14T18:40:06.977Z,93.00
2018-06-14T18:42:35.887Z,93.20
2018-06-14T18:45:04.448Z,93.50
2018-06-14T18:47:32.950Z,93.70
2018-06-14T18:50:01.439Z,93.90
2018-06-14T18:52:29.931Z,93.40
2018-06-14T18:54:58.833Z,93.20
2018-06-14T18:57:27.350Z,93.00
2018-06-14T18:59:55.800Z,93.40
2018-06-14T19:02:24.506Z,92.60
2018-06-14T19:04:52.937Z,92.90
2018-06-14T19:09:49.778Z,93.40
2018-06-14T19:12:18.366Z,93.30
2018-06-14T19:14:46.814Z,93.00
2018-06-14T19:17:15.295Z,92.60
2018-06-14T19:19:43.728Z,92.70
2018-06-14T19:22:12.214Z,92.80
2018-06-14T19:24:40.760Z,92.50
2018-06-14T19:27:09.232Z,92.90
2018-06-14T19:29:37.703Z,93.40
2018-06-14T19:32:06.371Z,93.50
2018-06-14T19:34:34.877Z,93.60
2018-06-14T19:37:03.370Z,93.50
2018-06-14T19:39:32.486Z,93.80
2018-06-14T19:42:00.997Z,94.10
2018-06-14T19:44:29.465Z,94.10
2018-06-14T19:46:57.870Z,94.60
2018-06-14T19:49:26.868Z,94.90
2018-06-14T19:51:56.588Z,95.00
2018-06-14T19:54:26.830Z,95.10
2018-06-14T19:56:55.305Z,94.80
2018-06-14T19:59:23.743Z,95.00
2018-06-14T20:01:52.361Z,95.10
2018-06-14T20:04:21.144Z,95.60
2018-06-14T20:06:49.659Z,96.10
2018-06-14T20:09:18.368Z,96.70
2018-06-14T20:11:46.826Z,97.20
2018-06-14T20:14:16.048Z,97.40
2018-06-14T20:16:44.678Z,97.60
2018-06-14T20:19:13.130Z,97.50
2018-06-14T20:21:41.585Z,97.40
2018-06-14T20:24:10.081Z,97.40
2018-06-14T20:26:38.571Z,97.30
2018-06-14T20:29:07.014Z,97.60
2018-06-14T20:31:35.666Z,97.60
2018-06-14T20:34:04.290Z,97.50
2018-06-14T20:36:32.787Z,97.80
2018-06-14T20:39:01.415Z,97.70
2018-06-14T20:41:30.166Z,97.90
2018-06-14T20:43:58.837Z,97.80
2018-06-14T20:46:27.338Z,97.80
2018-06-14T20:48:55.893Z,97.70
2018-06-14T20:51:25.016Z,97.90
2018-06-14T20:53:53.719Z,98.00
2018-06-14T20:56:22.209Z,97.90
2018-06-14T21:01:18.787Z,96.80
2018-06-14T21:03:47.279Z,96.60
2018-06-14T21:06:15.735Z,96.30
2018-06-14T21:08:45.214Z,96.00
2018-06-14T21:11:13.672Z,95.60
2018-06-14T21:13:42.278Z,95.60
2018-06-14T21:16:10.974Z,95.30
2018-06-14T21:18:39.459Z,95.10
2018-06-14T21:21:07.993Z,95.20
2018-06-14T21:23:36.495Z,95.10
2018-06-14T21:28:33.336Z,94.70
2018-06-14T21:31:01.773Z,94.70
2018-06-14T21:33:30.238Z,94.70
2018-06-14T21:35:58.678Z,94.70
2018-06-14T21:38:28.122Z,94.60
2018-06-14T21:40:56.612Z,94.60
2018-06-14T21:43:25.060Z,94.40
2018-06-14T21:45:53.505Z,94.30
2018-06-14T21:48:22.199Z,93.90
2018-06-14T21:50:50.600Z,93.90
2018-06-14T21:53:19.018Z,94.00
2018-06-14T21:55:47.453Z,94.10
2018-06-14T21:58:15.968Z,94.10
2018-06-14T22:00:44.406Z,94.00
2018-06-14T22:03:18.257Z,94.10
2018-06-14T22:05:46.707Z,94.30
2018-06-14T22:08:15.186Z,94.50
2018-06-14T22:10:43.597Z,94.60
2018-06-14T22:13:12.133Z,94.50
2018-06-14T22:15:40.574Z,94.50
2018-06-14T22:18:09.054Z,94.40
2018-06-14T22:20:37.509Z,94.60
2018-06-14T22:23:05.988Z,94.60
2018-06-14T22:25:34.489Z,94.50
2018-06-14T22:28:02.967Z,94.60
2018-06-14T22:30:31.417Z,94.40
2018-06-14T22:33:11.047Z,94.30
2018-06-14T22:35:39.609Z,94.30
2018-06-14T22:38:08.064Z,94.40
2018-06-14T22:40:36.540Z,94.60
2018-06-14T22:43:05.008Z,94.60
2018-06-14T22:45:33.430Z,94.70
2018-06-14T22:48:01.856Z,94.80
2018-06-14T22:50:41.645Z,94.80
2018-06-14T22:53:10.898Z,94.80
2018-06-14T22:55:39.518Z,94.80
2018-06-14T23:01:41.364Z,94.90
2018-06-14T23:04:11.078Z,94.80
2018-06-14T23:06:39.508Z,94.80
2018-06-14T23:10:25.566Z,94.90
2018-06-14T23:12:54.736Z,95.20
2018-06-14T23:15:23.748Z,95.50
2018-06-14T23:17:52.644Z,95.50
2018-06-14T23:20:22.632Z,95.20
2018-06-14T23:22:52.091Z,95.30
2018-06-14T23:25:21.453Z,95.30
2018-06-14T23:27:50.025Z,95.30
2018-06-14T23:30:18.748Z,95.10
2018-06-14T23:32:47.421Z,95.20
2018-06-14T23:35:16.388Z,95.00
2018-06-14T23:37:44.846Z,95.10
2018-06-14T23:40:13.299Z,95.00
2018-06-14T23:42:41.810Z,94.80
2018-06-14T23:45:10.291Z,94.80
2018-06-14T23:47:39.026Z,94.60
2018-06-14T23:50:07.523Z,94.50
2018-06-14T23:52:35.932Z,94.40
2018-06-14T23:55:04.447Z,94.50
2018-06-14T23:57:32.896Z,94.50
